sensor_id;sensor_type;location;lat;lon;timestamp;pressure;altitude;pressure_sealevel;temperature;humidity
8366;BME280;4220;42.502;24.188;2023-03-23T00:00:56;95159.69;;;6.54;100.00
8366;BME280;4220;42.502;24.188;2023-03-23T00:03:22;95172.88;;;6.54;100.00
8366;BME280;4220;42.502;24.188;2023-03-23T00:05:51;95170.84;;;6.56;100.00
8366;BME280;4220;42.502;24.188;2023-03-23T00:08:19;95180.19;;;6.58;100.00
8366;BME280;4220;42.502;24.188;2023-03-23T00:10:52;95180.00;;;6.60;100.00
8366;BME280;4220;42.502;24.188;2023-03-23T00:13:22;95176.59;;;6.66;100.00
8366;BME280;4220;42.502;24.188;2023-03-23T00:15:49;95178.13;;;6.54;100.00
8366;BME280;4220;42.502;24.188;2023-03-23T00:18:17;95171.41;;;6.45;100.00
8366;BME280;4220;42.502;24.188;2023-03-23T00:20:48;95164.94;;;6.47;100.00
8366;BME280;4220;42.502;24.188;2023-03-23T00:23:17;95174.88;;;6.18;100.00
8366;BME280;4220;42.502;24.188;2023-03-23T00:25:50;95171.97;;;6.06;100.00
8366;BME280;4220;42.502;24.188;2023-03-23T00:28:20;95180.94;;;5.69;100.00
8366;BME280;4220;42.502;24.188;2023-03-23T00:30:54;95175.84;;;5.68;100.00
8366;BME280;4220;42.502;24.188;2023-03-23T00:33:22;95171.53;;;5.81;100.00
8366;BME280;4220;42.502;24.188;2023-03-23T00:35:49;95177.50;;;5.69;100.00
8366;BME280;4220;42.502;24.188;2023-03-23T00:38:18;95168.25;;;5.52;100.00
8366;BME280;4220;42.502;24.188;2023-03-23T00:40:45;95169.81;;;5.67;100.00
8366;BME280;4220;42.502;24.188;2023-03-23T00:43:12;95166.41;;;5.73;100.00
8366;BME280;4220;42.502;24.188;2023-03-23T00:45:41;95173.06;;;5.90;100.00
8366;BME280;4220;42.502;24.188;2023-03-23T00:48:07;95169.06;;;5.95;100.00
8366;BME280;4220;42.502;24.188;2023-03-23T00:50:34;95157.25;;;5.90;100.00
8366;BME280;4220;42.502;24.188;2023-03-23T00:53:01;95171.34;;;6.04;100.00
8366;BME280;4220;42.502;24.188;2023-03-23T00:55:28;95171.00;;;6.14;100.00
8366;BME280;4220;42.502;24.188;2023-03-23T00:57:56;95170.59;;;6.17;100.00
8366;BME280;4220;42.502;24.188;2023-03-23T01:00:22;95164.97;;;6.20;100.00
8366;BME280;4220;42.502;24.188;2023-03-23T01:02:52;95161.34;;;6.21;100.00
8366;BME280;4220;42.502;24.188;2023-03-23T01:05:19;95161.97;;;6.29;100.00
8366;BME280;4220;42.502;24.188;2023-03-23T01:07:47;95168.22;;;6.22;100.00
8366;BME280;4220;42.502;24.188;2023-03-23T01:10:14;95158.59;;;6.08;100.00
8366;BME280;4220;42.502;24.188;2023-03-23T01:12:44;95154.06;;;5.95;100.00
8366;BME280;4220;42.502;24.188;2023-03-23T01:15:14;95150.84;;;6.00;100.00
8366;BME280;4220;42.502;24.188;2023-03-23T01:17:42;95148.44;;;6.05;100.00
8366;BME280;4220;42.502;24.188;2023-03-23T01:20:12;95149.03;;;6.00;100.00
8366;BME280;4220;42.502;24.188;2023-03-23T01:22:39;95164.94;;;6.13;100.00
8366;BME280;4220;42.502;24.188;2023-03-23T01:25:08;95154.41;;;6.13;100.00
8366;BME280;4220;42.502;24.188;2023-03-23T01:27:35;95150.47;;;6.03;100.00
8366;BME280;4220;42.502;24.188;2023-03-23T01:30:03;95149.94;;;5.86;100.00
8366;BME280;4220;42.502;24.188;2023-03-23T01:32:30;95144.19;;;5.55;100.00
8366;BME280;4220;42.502;24.188;2023-03-23T01:34:57;95146.50;;;5.64;100.00
8366;BME280;4220;42.502;24.188;2023-03-23T01:37:26;95144.63;;;5.58;100.00
8366;BME280;4220;42.502;24.188;2023-03-23T01:39:53;95148.00;;;5.52;100.00
8366;BME280;4220;42.502;24.188;2023-03-23T01:42:22;95148.06;;;5.59;100.00
8366;BME280;4220;42.502;24.188;2023-03-23T01:45:23;95144.13;;;5.69;100.00
8366;BME280;4220;42.502;24.188;2023-03-23T01:47:56;95147.84;;;5.81;100.00
8366;BME280;4220;42.502;24.188;2023-03-23T01:50:25;95150.75;;;5.86;100.00
8366;BME280;4220;42.502;24.188;2023-03-23T01:52:56;95145.50;;;5.86;100.00
8366;BME280;4220;42.502;24.188;2023-03-23T01:55:25;95147.75;;;5.89;100.00
8366;BME280;4220;42.502;24.188;2023-03-23T01:57:54;95145.91;;;5.90;100.00
8366;BME280;4220;42.502;24.188;2023-03-23T02:00:22;95148.38;;;5.91;100.00
8366;BME280;4220;42.502;24.188;2023-03-23T02:02:52;95153.13;;;5.81;100.00
8366;BME280;4220;42.502;24.188;2023-03-23T02:05:25;95139.72;;;5.76;100.00
8366;BME280;4220;42.502;24.188;2023-03-23T02:07:57;95148.34;;;5.70;100.00
8366;BME280;4220;42.502;24.188;2023-03-23T02:10:28;95147.25;;;5.58;100.00
8366;BME280;4220;42.502;24.188;2023-03-23T02:12:55;95145.56;;;5.29;100.00
8366;BME280;4220;42.502;24.188;2023-03-23T02:15:24;95122.41;;;4.61;100.00
8366;BME280;4220;42.502;24.188;2023-03-23T02:17:58;95140.34;;;4.79;100.00
8366;BME280;4220;42.502;24.188;2023-03-23T02:20:43;95141.22;;;5.01;100.00
8366;BME280;4220;42.502;24.188;2023-03-23T02:24:00;95148.13;;;5.23;100.00
8366;BME280;4220;42.502;24.188;2023-03-23T02:26:41;95150.72;;;5.38;100.00
8366;BME280;4220;42.502;24.188;2023-03-23T02:29:47;95155.19;;;5.44;100.00
8366;BME280;4220;42.502;24.188;2023-03-23T02:32:31;95153.84;;;5.48;100.00
8366;BME280;4220;42.502;24.188;2023-03-23T02:35:07;95137.09;;;5.34;100.00
8366;BME280;4220;42.502;24.188;2023-03-23T02:37:42;95172.78;;;5.43;100.00
8366;BME280;4220;42.502;24.188;2023-03-23T02:40:15;95172.31;;;5.33;100.00
8366;BME280;4220;42.502;24.188;2023-03-23T02:42:47;95164.72;;;5.23;100.00
8366;BME280;4220;42.502;24.188;2023-03-23T02:45:17;95159.50;;;5.09;100.00
8366;BME280;4220;42.502;24.188;2023-03-23T02:47:45;95167.03;;;5.12;100.00
8366;BME280;4220;42.502;24.188;2023-03-23T02:50:16;95157.47;;;4.90;100.00
8366;BME280;4220;42.502;24.188;2023-03-23T02:52:45;95166.84;;;4.63;100.00
8366;BME280;4220;42.502;24.188;2023-03-23T02:55:13;95177.06;;;4.73;100.00
8366;BME280;4220;42.502;24.188;2023-03-23T02:57:41;95176.63;;;4.69;100.00
8366;BME280;4220;42.502;24.188;2023-03-23T03:00:14;95160.25;;;4.52;100.00
8366;BME280;4220;42.502;24.188;2023-03-23T03:02:43;95174.94;;;4.61;100.00
8366;BME280;4220;42.502;24.188;2023-03-23T03:05:22;95182.31;;;4.73;100.00
8366;BME280;4220;42.502;24.188;2023-03-23T03:08:00;95183.13;;;4.88;100.00
8366;BME280;4220;42.502;24.188;2023-03-23T03:10:32;95187.09;;;4.98;100.00
8366;BME280;4220;42.502;24.188;2023-03-23T03:13:06;95184.34;;;5.06;100.00
8366;BME280;4220;42.502;24.188;2023-03-23T03:15:36;95178.16;;;5.14;100.00
8366;BME280;4220;42.502;24.188;2023-03-23T03:18:09;95192.56;;;5.18;100.00
8366;BME280;4220;42.502;24.188;2023-03-23T03:20:44;95145.22;;;4.97;100.00
8366;BME280;4220;42.502;24.188;2023-03-23T03:23:13;95186.19;;;5.27;100.00
8366;BME280;4220;42.502;24.188;2023-03-23T03:25:43;95186.44;;;5.11;100.00
8366;BME280;4220;42.502;24.188;2023-03-23T03:28:14;95181.06;;;4.83;100.00
8366;BME280;4220;42.502;24.188;2023-03-23T03:30:42;95181.50;;;4.72;100.00
8366;BME280;4220;42.502;24.188;2023-03-23T03:33:12;95179.97;;;4.78;100.00
8366;BME280;4220;42.502;24.188;2023-03-23T03:35:41;95173.25;;;4.75;100.00
8366;BME280;4220;42.502;24.188;2023-03-23T03:38:10;95197.38;;;4.79;100.00
8366;BME280;4220;42.502;24.188;2023-03-23T03:40:37;95192.13;;;4.79;100.00
8366;BME280;4220;42.502;24.188;2023-03-23T03:43:05;95199.34;;;4.77;100.00
8366;BME280;4220;42.502;24.188;2023-03-23T03:45:32;95190.47;;;4.78;100.00
8366;BME280;4220;42.502;24.188;2023-03-23T03:47:59;95183.06;;;4.81;100.00
8366;BME280;4220;42.502;24.188;2023-03-23T03:50:27;95181.56;;;4.93;100.00
8366;BME280;4220;42.502;24.188;2023-03-23T03:52:55;95188.09;;;4.97;100.00
8366;BME280;4220;42.502;24.188;2023-03-23T03:55:23;95187.66;;;4.94;100.00
8366;BME280;4220;42.502;24.188;2023-03-23T03:57:50;95184.09;;;4.87;100.00
8366;BME280;4220;42.502;24.188;2023-03-23T04:00:17;95188.66;;;4.93;100.00
8366;BME280;4220;42.502;24.188;2023-03-23T04:02:46;95192.91;;;4.94;100.00
8366;BME280;4220;42.502;24.188;2023-03-23T04:05:17;95197.16;;;4.95;100.00
8366;BME280;4220;42.502;24.188;2023-03-23T04:07:45;95191.59;;;4.69;100.00
8366;BME280;4220;42.502;24.188;2023-03-23T04:10:16;95181.38;;;4.44;100.00
8366;BME280;4220;42.502;24.188;2023-03-23T04:12:45;95192.41;;;4.69;100.00
8366;BME280;4220;42.502;24.188;2023-03-23T04:15:12;95196.63;;;4.85;100.00
8366;BME280;4220;42.502;24.188;2023-03-23T04:17:39;95198.97;;;4.80;100.00
8366;BME280;4220;42.502;24.188;2023-03-23T04:20:08;95191.09;;;4.80;100.00
8366;BME280;4220;42.502;24.188;2023-03-23T04:22:39;95202.91;;;4.69;100.00
8366;BME280;4220;42.502;24.188;2023-03-23T04:25:09;95184.94;;;4.73;100.00
8366;BME280;4220;42.502;24.188;2023-03-23T04:27:39;95202.22;;;4.82;100.00
8366;BME280;4220;42.502;24.188;2023-03-23T04:30:09;95199.28;;;4.55;100.00
8366;BME280;4220;42.502;24.188;2023-03-23T04:32:37;95203.69;;;4.70;100.00
8366;BME280;4220;42.502;24.188;2023-03-23T04:35:08;95199.72;;;4.74;100.00
8366;BME280;4220;42.502;24.188;2023-03-23T04:37:36;95204.97;;;4.74;100.00
8366;BME280;4220;42.502;24.188;2023-03-23T04:40:05;95198.00;;;4.66;100.00
8366;BME280;4220;42.502;24.188;2023-03-23T04:42:39;95207.97;;;4.71;100.00
8366;BME280;4220;42.502;24.188;2023-03-23T04:45:08;95187.53;;;4.37;100.00
8366;BME280;4220;42.502;24.188;2023-03-23T04:47:36;95210.78;;;4.54;100.00
8366;BME280;4220;42.502;24.188;2023-03-23T04:50:07;95216.41;;;4.51;100.00
8366;BME280;4220;42.502;24.188;2023-03-23T04:52:35;95215.38;;;4.52;100.00
8366;BME280;4220;42.502;24.188;2023-03-23T04:55:04;95212.13;;;4.65;100.00
8366;BME280;4220;42.502;24.188;2023-03-23T04:57:32;95217.84;;;4.83;100.00
8366;BME280;4220;42.502;24.188;2023-03-23T05:00:00;95226.63;;;4.90;100.00
8366;BME280;4220;42.502;24.188;2023-03-23T05:02:34;95222.50;;;5.02;100.00
8366;BME280;4220;42.502;24.188;2023-03-23T05:05:01;95230.19;;;5.04;100.00
8366;BME280;4220;42.502;24.188;2023-03-23T05:07:27;95233.38;;;5.14;100.00
8366;BME280;4220;42.502;24.188;2023-03-23T05:09:54;95237.28;;;5.18;100.00
8366;BME280;4220;42.502;24.188;2023-03-23T05:12:21;95242.03;;;5.29;100.00
8366;BME280;4220;42.502;24.188;2023-03-23T05:14:48;95240.91;;;5.38;100.00
8366;BME280;4220;42.502;24.188;2023-03-23T05:17:16;95249.06;;;5.43;100.00
8366;BME280;4220;42.502;24.188;2023-03-23T05:19:44;95244.25;;;5.47;100.00
8366;BME280;4220;42.502;24.188;2023-03-23T05:22:12;95254.66;;;5.55;100.00
8366;BME280;4220;42.502;24.188;2023-03-23T05:24:40;95254.94;;;5.60;100.00
8366;BME280;4220;42.502;24.188;2023-03-23T05:27:08;95256.91;;;5.58;100.00
8366;BME280;4220;42.502;24.188;2023-03-23T05:29:35;95266.25;;;5.60;100.00
8366;BME280;4220;42.502;24.188;2023-03-23T05:32:03;95260.09;;;5.53;100.00
8366;BME280;4220;42.502;24.188;2023-03-23T05:34:32;95256.78;;;5.45;100.00
8366;BME280;4220;42.502;24.188;2023-03-23T05:36:59;95261.03;;;5.46;100.00
8366;BME280;4220;42.502;24.188;2023-03-23T05:39:26;95253.66;;;5.56;100.00
8366;BME280;4220;42.502;24.188;2023-03-23T05:41:53;95266.38;;;5.52;100.00
8366;BME280;4220;42.502;24.188;2023-03-23T05:44:21;95256.47;;;5.33;100.00
8366;BME280;4220;42.502;24.188;2023-03-23T05:46:48;95252.97;;;5.47;100.00
8366;BME280;4220;42.502;24.188;2023-03-23T05:49:15;95266.41;;;5.73;100.00
8366;BME280;4220;42.502;24.188;2023-03-23T05:51:44;95269.44;;;5.91;100.00
8366;BME280;4220;42.502;24.188;2023-03-23T05:54:12;95265.19;;;6.12;100.00
8366;BME280;4220;42.502;24.188;2023-03-23T05:56:39;95260.38;;;6.22;100.00
8366;BME280;4220;42.502;24.188;2023-03-23T05:59:07;95264.41;;;6.18;100.00
8366;BME280;4220;42.502;24.188;2023-03-23T06:01:34;95265.06;;;5.99;100.00
8366;BME280;4220;42.502;24.188;2023-03-23T06:04:00;95260.28;;;5.87;100.00
8366;BME280;4220;42.502;24.188;2023-03-23T06:06:28;95263.66;;;5.81;100.00
8366;BME280;4220;42.502;24.188;2023-03-23T06:08:57;95268.06;;;5.96;100.00
8366;BME280;4220;42.502;24.188;2023-03-23T06:11:24;95252.06;;;5.97;100.00
8366;BME280;4220;42.502;24.188;2023-03-23T06:13:51;95258.41;;;6.24;100.00
8366;BME280;4220;42.502;24.188;2023-03-23T06:16:18;95266.47;;;6.50;100.00
8366;BME280;4220;42.502;24.188;2023-03-23T06:18:45;95269.69;;;6.73;100.00
8366;BME280;4220;42.502;24.188;2023-03-23T06:21:13;95259.66;;;6.90;100.00
8366;BME280;4220;42.502;24.188;2023-03-23T06:23:40;95256.53;;;7.14;100.00
8366;BME280;4220;42.502;24.188;2023-03-23T06:26:11;95267.38;;;7.39;100.00
8366;BME280;4220;42.502;24.188;2023-03-23T06:28:42;95266.63;;;7.58;100.00
8366;BME280;4220;42.502;24.188;2023-03-23T06:31:09;95266.69;;;7.71;100.00
8366;BME280;4220;42.502;24.188;2023-03-23T06:33:37;95265.31;;;7.88;100.00
8366;BME280;4220;42.502;24.188;2023-03-23T06:36:05;95269.19;;;8.05;100.00
8366;BME280;4220;42.502;24.188;2023-03-23T06:38:32;95242.34;;;8.02;100.00
8366;BME280;4220;42.502;24.188;2023-03-23T06:40:59;95274.31;;;8.39;100.00
8366;BME280;4220;42.502;24.188;2023-03-23T06:43:27;95284.47;;;8.55;100.00
8366;BME280;4220;42.502;24.188;2023-03-23T06:45:53;95283.66;;;8.62;100.00
8366;BME280;4220;42.502;24.188;2023-03-23T06:48:20;95287.13;;;8.69;100.00
8366;BME280;4220;42.502;24.188;2023-03-23T06:50:47;95286.28;;;8.81;100.00
8366;BME280;4220;42.502;24.188;2023-03-23T06:53:14;95293.78;;;8.97;100.00
8366;BME280;4220;42.502;24.188;2023-03-23T06:55:43;95292.94;;;9.10;100.00
8366;BME280;4220;42.502;24.188;2023-03-23T06:58:10;95298.41;;;9.28;100.00
8366;BME280;4220;42.502;24.188;2023-03-23T07:00:38;95294.91;;;9.41;100.00
8366;BME280;4220;42.502;24.188;2023-03-23T07:03:06;95289.97;;;9.57;100.00
8366;BME280;4220;42.502;24.188;2023-03-23T07:05:34;95292.94;;;9.74;100.00
8366;BME280;4220;42.502;24.188;2023-03-23T07:08:01;95289.38;;;9.93;100.00
8366;BME280;4220;42.502;24.188;2023-03-23T07:10:28;95291.94;;;10.06;100.00
8366;BME280;4220;42.502;24.188;2023-03-23T07:12:55;95250.22;;;9.95;100.00
8366;BME280;4220;42.502;24.188;2023-03-23T07:15:22;95285.44;;;10.40;100.00
8366;BME280;4220;42.502;24.188;2023-03-23T07:17:50;95292.56;;;10.64;100.00
8366;BME280;4220;42.502;24.188;2023-03-23T07:20:19;95291.00;;;10.81;100.00
8366;BME280;4220;42.502;24.188;2023-03-23T07:22:46;95295.19;;;10.95;100.00
8366;BME280;4220;42.502;24.188;2023-03-23T07:25:13;95300.81;;;11.05;100.00
8366;BME280;4220;42.502;24.188;2023-03-23T07:27:40;95291.44;;;11.21;100.00
8366;BME280;4220;42.502;24.188;2023-03-23T07:30:07;95296.69;;;11.46;100.00
8366;BME280;4220;42.502;24.188;2023-03-23T07:32:34;95274.28;;;11.42;100.00
8366;BME280;4220;42.502;24.188;2023-03-23T07:35:03;95301.72;;;11.54;100.00
8366;BME280;4220;42.502;24.188;2023-03-23T07:37:30;95292.19;;;11.64;100.00
8366;BME280;4220;42.502;24.188;2023-03-23T07:39:57;95302.25;;;11.80;100.00
8366;BME280;4220;42.502;24.188;2023-03-23T07:42:24;95301.28;;;11.75;99.95
8366;BME280;4220;42.502;24.188;2023-03-23T07:44:51;95306.25;;;11.71;97.76
8366;BME280;4220;42.502;24.188;2023-03-23T07:47:18;95307.84;;;11.72;98.40
8366;BME280;4220;42.502;24.188;2023-03-23T07:49:44;95312.34;;;11.72;98.64
8366;BME280;4220;42.502;24.188;2023-03-23T07:52:13;95313.97;;;11.73;97.81
8366;BME280;4220;42.502;24.188;2023-03-23T07:54:40;95310.66;;;11.77;95.66
8366;BME280;4220;42.502;24.188;2023-03-23T07:57:06;95322.72;;;11.92;92.11
8366;BME280;4220;42.502;24.188;2023-03-23T07:59:33;95299.44;;;11.94;92.93
8366;BME280;4220;42.502;24.188;2023-03-23T08:02:00;95316.16;;;12.24;92.29
8366;BME280;4220;42.502;24.188;2023-03-23T08:04:27;95313.66;;;12.29;91.75
8366;BME280;4220;42.502;24.188;2023-03-23T08:06:54;95316.81;;;12.37;92.22
8366;BME280;4220;42.502;24.188;2023-03-23T08:09:22;95315.41;;;12.35;92.36
8366;BME280;4220;42.502;24.188;2023-03-23T08:11:49;95317.97;;;12.41;92.69
8366;BME280;4220;42.502;24.188;2023-03-23T08:14:17;95324.09;;;12.42;90.98
8366;BME280;4220;42.502;24.188;2023-03-23T08:16:44;95316.03;;;12.48;91.16
8366;BME280;4220;42.502;24.188;2023-03-23T08:19:11;95317.81;;;12.66;90.99
8366;BME280;4220;42.502;24.188;2023-03-23T08:21:37;95325.91;;;12.83;91.52
8366;BME280;4220;42.502;24.188;2023-03-23T08:24:05;95328.94;;;12.86;89.15
8366;BME280;4220;42.502;24.188;2023-03-23T08:26:33;95324.66;;;12.85;89.06
8366;BME280;4220;42.502;24.188;2023-03-23T08:29:00;95331.88;;;12.96;87.87
8366;BME280;4220;42.502;24.188;2023-03-23T08:31:26;95318.59;;;13.08;87.80
8366;BME280;4220;42.502;24.188;2023-03-23T08:33:53;95328.44;;;13.31;87.71
8366;BME280;4220;42.502;24.188;2023-03-23T08:36:22;95329.59;;;13.46;85.76
8366;BME280;4220;42.502;24.188;2023-03-23T08:38:48;95309.63;;;13.60;86.22
8366;BME280;4220;42.502;24.188;2023-03-23T08:41:16;95314.97;;;13.60;85.86
8366;BME280;4220;42.502;24.188;2023-03-23T08:43:45;95321.78;;;13.68;85.48
8366;BME280;4220;42.502;24.188;2023-03-23T08:46:11;95317.75;;;13.65;84.51
8366;BME280;4220;42.502;24.188;2023-03-23T08:48:39;95314.19;;;13.48;84.40
8366;BME280;4220;42.502;24.188;2023-03-23T08:51:06;95311.88;;;13.40;85.38
8366;BME280;4220;42.502;24.188;2023-03-23T08:53:34;95319.50;;;13.48;85.33
8366;BME280;4220;42.502;24.188;2023-03-23T08:56:06;95318.03;;;13.29;84.79
8366;BME280;4220;42.502;24.188;2023-03-23T08:58:33;95317.78;;;13.19;85.03
8366;BME280;4220;42.502;24.188;2023-03-23T09:01:01;95301.34;;;13.34;86.08
8366;BME280;4220;42.502;24.188;2023-03-23T09:03:28;95309.84;;;13.59;85.29
8366;BME280;4220;42.502;24.188;2023-03-23T09:05:58;95315.09;;;13.94;83.98
8366;BME280;4220;42.502;24.188;2023-03-23T09:08:27;95307.50;;;14.14;82.93
8366;BME280;4220;42.502;24.188;2023-03-23T09:10:54;95313.28;;;14.51;82.25
8366;BME280;4220;42.502;24.188;2023-03-23T09:13:21;95301.38;;;14.86;80.92
8366;BME280;4220;42.502;24.188;2023-03-23T09:15:48;95304.19;;;14.96;78.99
8366;BME280;4220;42.502;24.188;2023-03-23T09:18:17;95274.41;;;14.88;79.98
8366;BME280;4220;42.502;24.188;2023-03-23T09:20:45;95306.84;;;14.96;79.41
8366;BME280;4220;42.502;24.188;2023-03-23T09:23:12;95310.44;;;14.85;80.71
8366;BME280;4220;42.502;24.188;2023-03-23T09:25:39;95277.38;;;14.30;82.32
8366;BME280;4220;42.502;24.188;2023-03-23T09:28:06;95309.16;;;14.03;84.03
8366;BME280;4220;42.502;24.188;2023-03-23T09:30:34;95266.75;;;13.62;86.70
8366;BME280;4220;42.502;24.188;2023-03-23T09:33:03;95301.38;;;13.73;87.64
8366;BME280;4220;42.502;24.188;2023-03-23T09:35:32;95306.69;;;13.73;86.47
8366;BME280;4220;42.502;24.188;2023-03-23T09:38:00;95297.31;;;13.71;86.98
8366;BME280;4220;42.502;24.188;2023-03-23T09:40:30;95296.78;;;13.57;86.43
8366;BME280;4220;42.502;24.188;2023-03-23T09:43:11;95288.63;;;13.75;85.73
8366;BME280;4220;42.502;24.188;2023-03-23T09:45:45;95303.47;;;14.11;84.60
8366;BME280;4220;42.502;24.188;2023-03-23T09:48:40;95303.88;;;14.31;82.96
8366;BME280;4220;42.502;24.188;2023-03-23T09:51:17;95301.09;;;14.26;82.36
8366;BME280;4220;42.502;24.188;2023-03-23T09:53:49;95305.25;;;14.34;82.33
8366;BME280;4220;42.502;24.188;2023-03-23T09:56:19;95298.94;;;14.40;82.21
8366;BME280;4220;42.502;24.188;2023-03-23T09:58:51;95312.25;;;14.52;80.64
8366;BME280;4220;42.502;24.188;2023-03-23T10:01:22;95307.94;;;14.34;80.20
8366;BME280;4220;42.502;24.188;2023-03-23T10:03:55;95295.44;;;14.51;80.04
8366;BME280;4220;42.502;24.188;2023-03-23T10:06:25;95295.88;;;14.76;78.57
8366;BME280;4220;42.502;24.188;2023-03-23T10:08:55;95293.03;;;14.99;78.17
8366;BME280;4220;42.502;24.188;2023-03-23T10:11:29;95285.41;;;15.25;76.09
8366;BME280;4220;42.502;24.188;2023-03-23T10:14:08;95275.66;;;15.52;75.54
8366;BME280;4220;42.502;24.188;2023-03-23T10:16:40;95274.66;;;15.58;75.63
8366;BME280;4220;42.502;24.188;2023-03-23T10:19:11;95249.06;;;15.07;75.65
8366;BME280;4220;42.502;24.188;2023-03-23T10:21:43;95280.31;;;15.06;76.24
8366;BME280;4220;42.502;24.188;2023-03-23T10:24:15;95270.69;;;14.89;76.24
8366;BME280;4220;42.502;24.188;2023-03-23T10:26:50;95282.69;;;14.86;76.32
8366;BME280;4220;42.502;24.188;2023-03-23T10:29:21;95275.06;;;14.78;75.38
8366;BME280;4220;42.502;24.188;2023-03-23T10:31:52;95278.13;;;14.70;76.86
8366;BME280;4220;42.502;24.188;2023-03-23T10:34:23;95284.50;;;14.53;76.55
8366;BME280;4220;42.502;24.188;2023-03-23T10:36:59;95280.97;;;14.64;76.44
8366;BME280;4220;42.502;24.188;2023-03-23T10:39:31;95282.81;;;14.63;76.09
8366;BME280;4220;42.502;24.188;2023-03-23T10:42:00;95283.69;;;14.52;75.87
8366;BME280;4220;42.502;24.188;2023-03-23T10:44:33;95277.91;;;14.88;75.46
8366;BME280;4220;42.502;24.188;2023-03-23T10:47:02;95265.94;;;15.29;75.25
8366;BME280;4220;42.502;24.188;2023-03-23T10:49:34;95273.75;;;15.69;74.45
8366;BME280;4220;42.502;24.188;2023-03-23T10:52:12;95264.91;;;15.90;74.51
8366;BME280;4220;42.502;24.188;2023-03-23T10:54:50;95269.50;;;16.16;73.95
8366;BME280;4220;42.502;24.188;2023-03-23T10:57:23;95268.97;;;16.19;73.81
8366;BME280;4220;42.502;24.188;2023-03-23T10:59:58;95268.88;;;16.58;73.16
8366;BME280;4220;42.502;24.188;2023-03-23T11:02:25;95273.09;;;17.17;72.03
8366;BME280;4220;42.502;24.188;2023-03-23T11:05:00;95275.91;;;17.84;70.21
8366;BME280;4220;42.502;24.188;2023-03-23T11:07:33;95275.31;;;18.44;66.48
8366;BME280;4220;42.502;24.188;2023-03-23T11:10:08;95274.56;;;19.14;63.40
8366;BME280;4220;42.502;24.188;2023-03-23T11:12:44;95240.66;;;19.48;60.87
8366;BME280;4220;42.502;24.188;2023-03-23T11:15:31;95262.38;;;19.82;58.87
8366;BME280;4220;42.502;24.188;2023-03-23T11:18:02;95260.78;;;19.76;59.29
8366;BME280;4220;42.502;24.188;2023-03-23T11:20:34;95264.00;;;19.73;59.27
8366;BME280;4220;42.502;24.188;2023-03-23T11:23:10;95255.22;;;18.92;59.68
8366;BME280;4220;42.502;24.188;2023-03-23T11:25:56;95250.00;;;18.10;62.02
8366;BME280;4220;42.502;24.188;2023-03-23T11:28:29;95253.28;;;18.37;62.38
8366;BME280;4220;42.502;24.188;2023-03-23T11:30:58;95253.09;;;18.69;62.78
8366;BME280;4220;42.502;24.188;2023-03-23T11:33:29;95262.50;;;19.02;60.90
8366;BME280;4220;42.502;24.188;2023-03-23T11:35:57;95252.81;;;19.06;61.25
8366;BME280;4220;42.502;24.188;2023-03-23T11:38:25;95251.72;;;19.27;60.66
8366;BME280;4220;42.502;24.188;2023-03-23T11:40:53;95254.91;;;19.34;60.71
8366;BME280;4220;42.502;24.188;2023-03-23T11:43:22;95245.53;;;19.36;60.27
8366;BME280;4220;42.502;24.188;2023-03-23T11:45:56;95242.56;;;19.48;59.93
8366;BME280;4220;42.502;24.188;2023-03-23T11:48:30;95245.81;;;19.40;59.07
8366;BME280;4220;42.502;24.188;2023-03-23T11:51:02;95245.50;;;19.46;58.60
8366;BME280;4220;42.502;24.188;2023-03-23T11:53:39;95247.16;;;19.42;58.85
8366;BME280;4220;42.502;24.188;2023-03-23T11:56:14;95244.13;;;19.69;58.50
8366;BME280;4220;42.502;24.188;2023-03-23T11:58:43;95246.19;;;19.92;57.92
8366;BME280;4220;42.502;24.188;2023-03-23T12:01:16;95241.38;;;19.84;57.82
8366;BME280;4220;42.502;24.188;2023-03-23T12:04:03;95243.06;;;19.60;58.18
8366;BME280;4220;42.502;24.188;2023-03-23T12:06:41;95229.13;;;19.33;60.33
8366;BME280;4220;42.502;24.188;2023-03-23T12:09:22;95240.19;;;18.96;62.86
8366;BME280;4220;42.502;24.188;2023-03-23T12:12:02;95236.41;;;18.57;64.69
8366;BME280;4220;42.502;24.188;2023-03-23T12:14:36;95233.38;;;18.18;65.02
8366;BME280;4220;42.502;24.188;2023-03-23T12:17:17;95237.84;;;17.92;65.10
8366;BME280;4220;42.502;24.188;2023-03-23T12:19:55;95197.25;;;17.63;65.16
8366;BME280;4220;42.502;24.188;2023-03-23T12:22:37;95230.34;;;17.94;65.84
8366;BME280;4220;42.502;24.188;2023-03-23T12:25:30;95231.44;;;18.08;65.47
8366;BME280;4220;42.502;24.188;2023-03-23T12:28:03;95234.72;;;18.20;64.26
8366;BME280;4220;42.502;24.188;2023-03-23T12:30:35;95238.75;;;18.38;64.32
8366;BME280;4220;42.502;24.188;2023-03-23T12:33:17;95232.41;;;18.69;64.05
8366;BME280;4220;42.502;24.188;2023-03-23T12:35:52;95225.66;;;18.87;62.17
8366;BME280;4220;42.502;24.188;2023-03-23T12:38:36;95229.66;;;19.25;62.06
8366;BME280;4220;42.502;24.188;2023-03-23T12:41:17;95238.78;;;19.29;62.04
8366;BME280;4220;42.502;24.188;2023-03-23T12:43:51;95230.47;;;19.25;61.57
8366;BME280;4220;42.502;24.188;2023-03-23T12:46:46;95233.47;;;18.99;61.69
8366;BME280;4220;42.502;24.188;2023-03-23T12:49:19;95229.44;;;19.06;62.87
8366;BME280;4220;42.502;24.188;2023-03-23T12:51:53;95210.63;;;19.01;63.16
8366;BME280;4220;42.502;24.188;2023-03-23T12:54:28;95229.16;;;19.03;62.72
8366;BME280;4220;42.502;24.188;2023-03-23T12:57:04;95231.03;;;19.07;63.22
8366;BME280;4220;42.502;24.188;2023-03-23T12:59:39;95229.16;;;19.13;62.69
8366;BME280;4220;42.502;24.188;2023-03-23T13:02:21;95231.53;;;19.34;63.04
8366;BME280;4220;42.502;24.188;2023-03-23T13:04:52;95236.41;;;19.37;63.98
8366;BME280;4220;42.502;24.188;2023-03-23T13:07:26;95228.59;;;19.26;65.56
8366;BME280;4220;42.502;24.188;2023-03-23T13:10:00;95227.81;;;19.00;66.21
8366;BME280;4220;42.502;24.188;2023-03-23T13:12:31;95228.06;;;18.48;68.19
8366;BME280;4220;42.502;24.188;2023-03-23T13:15:11;95222.25;;;17.84;69.61
8366;BME280;4220;42.502;24.188;2023-03-23T13:17:47;95223.66;;;17.45;69.56
8366;BME280;4220;42.502;24.188;2023-03-23T13:20:32;95225.44;;;17.24;70.79
8366;BME280;4220;42.502;24.188;2023-03-23T13:23:05;95227.53;;;17.17;70.91
8366;BME280;4220;42.502;24.188;2023-03-23T13:25:46;95222.94;;;17.13;70.30
8366;BME280;4220;42.502;24.188;2023-03-23T13:28:17;95229.63;;;17.52;69.60